Terminal Aerodrome Forecast
Issued by NWS

Home | Current Version | Previous Version | Text Only | Print | Product List | Glossary On
Versions: 1 2 3 4 5 6 7 8 9 10 11 12 13 14 15 16 17 18 19 20 21 22 23 24 25 26 27 28 29 30 31 32 33 34 35
000
FTUS46 KLOX 160300 AAB
TAFLAX
TAF AMD
KLAX 160300Z 1603/1706 27010KT P6SM BKN007
     FM160500 24005KT 6SM BR OVC007
     FM160900 12005KT 6SM BR OVC010
     FM161800 24006KT P6SM BKN012
     FM162000 25010KT P6SM SCT015
     FM170300 VRB03KT 5SM BR BKN010=

USA.gov is the U.S. government's official web portal to all federal, state and local government web resources and services.